Time;durP1;ratioP1;P1;durP2;ratioP2;P2;SDS_P1;SDS_P2;PMS_P1;PMS_P2;Temp;Humidity;BMP_temperature;BMP_pressure;BME280_temperature;BME280_humidity;BME280_pressure;Samples;Min_cycle;Max_cycle;Signal;HPM_P1;HPM_P2
2022/05/06 00:01:30;;;;;;;8.60;7.70;;;;;;;;;;4972201;28;20719;-74
2022/05/06 00:03:55;;;;;;;7.80;6.93;;;;;;;;;;4978539;28;20227;-74
2022/05/06 00:06:20;;;;;;;9.37;7.53;;;;;;;;;;4946028;28;20221;-74
2022/05/06 00:08:46;;;;;;;8.53;7.57;;;;;;;;;;4970068;28;20230;-73
2022/05/06 00:11:12;;;;;;;8.43;7.43;;;;;;;;;;4960506;28;20671;-73
2022/05/06 00:13:40;;;;;;;9.40;7.77;;;;;;;;;;4955601;28;20229;-74
2022/05/06 00:16:05;;;;;;;9.30;7.50;;;;;;;;;;4966838;28;20424;-74
2022/05/06 00:18:33;;;;;;;8.80;7.63;;;;;;;;;;4968023;28;20245;-73
2022/05/06 00:20:59;;;;;;;9.27;7.87;;;;;;;;;;4967800;28;20256;-74
2022/05/06 00:23:25;;;;;;;8.93;8.03;;;;;;;;;;4971127;28;20242;-74
2022/05/06 00:25:50;;;;;;;8.70;7.30;;;;;;;;;;4977010;28;20244;-73
2022/05/06 00:28:16;;;;;;;9.43;8.17;;;;;;;;;;4960945;28;20284;-73
2022/05/06 00:30:44;;;;;;;8.30;7.50;;;;;;;;;;4968642;28;20239;-74
2022/05/06 00:33:09;;;;;;;10.30;8.33;;;;;;;;;;4991053;28;20321;-73
2022/05/06 00:35:38;;;;;;;11.30;8.20;;;;;;;;;;4962613;28;20698;-74
2022/05/06 00:38:09;;;;;;;9.60;8.37;;;;;;;;;;4957657;28;20321;-74
2022/05/06 00:40:34;;;;;;;10.77;8.00;;;;;;;;;;4980005;28;20230;-74
2022/05/06 00:43:02;;;;;;;10.77;8.57;;;;;;;;;;4957125;28;20242;-74
2022/05/06 00:45:34;;;;;;;10.03;8.33;;;;;;;;;;4954173;28;20233;-74
2022/05/06 00:48:09;;;;;;;9.60;8.33;;;;;;;;;;4944724;28;20221;-74
2022/05/06 00:50:34;;;;;;;9.57;8.13;;;;;;;;;;4938302;28;20226;-74
2022/05/06 00:53:01;;;;;;;9.10;8.30;;;;;;;;;;4957047;28;20684;-74
2022/05/06 00:55:29;;;;;;;8.77;7.87;;;;;;;;;;4957849;28;20730;-74
2022/05/06 00:57:55;;;;;;;9.27;8.33;;;;;;;;;;4944863;28;20261;-73
2022/05/06 01:00:20;;;;;;;8.90;8.00;;;;;;;;;;4971913;28;20229;-74
2022/05/06 01:02:48;;;;;;;10.57;8.70;;;;;;;;;;4957768;28;20726;-74
2022/05/06 01:05:14;;;;;;;10.30;8.47;;;;;;;;;;4962716;28;20320;-73
2022/05/06 01:07:43;;;;;;;10.63;9.37;;;;;;;;;;4958072;28;20225;-74
2022/05/06 01:10:11;;;;;;;9.80;8.80;;;;;;;;;;4957837;28;20217;-74
2022/05/06 01:12:37;;;;;;;10.60;8.77;;;;;;;;;;4960596;28;20226;-73
2022/05/06 01:15:23;;;;;;;9.90;8.20;;;;;;;;;;4978264;28;20226;-75
2022/05/06 01:17:58;;;;;;;9.37;8.47;;;;;;;;;;4956280;28;20222;-74
2022/05/06 01:20:24;;;;;;;9.97;8.97;;;;;;;;;;4955124;28;20253;-74
2022/05/06 01:22:56;;;;;;;10.00;8.87;;;;;;;;;;4955293;28;20783;-74
2022/05/06 01:25:24;;;;;;;10.13;8.73;;;;;;;;;;4942069;28;20311;-74
2022/05/06 01:28:00;;;;;;;10.83;9.60;;;;;;;;;;4965866;28;20305;-74
2022/05/06 01:30:39;;;;;;;12.07;9.27;;;;;;;;;;4955839;28;20218;-75
2022/05/06 01:33:08;;;;;;;10.83;8.73;;;;;;;;;;4959907;28;20234;-75
2022/05/06 01:35:43;;;;;;;10.20;8.70;;;;;;;;;;4973922;28;20217;-74
2022/05/06 01:38:09;;;;;;;9.80;8.90;;;;;;;;;;4944584;28;20229;-74
2022/05/06 01:40:42;;;;;;;10.27;9.20;;;;;;;;;;4958313;28;20247;-75
2022/05/06 01:43:13;;;;;;;11.30;9.87;;;;;;;;;;4970542;28;20229;-74
2022/05/06 01:45:44;;;;;;;11.57;9.53;;;;;;;;;;4967451;28;20256;-74
2022/05/06 01:48:11;;;;;;;11.03;9.80;;;;;;;;;;4927205;28;20209;-74
2022/05/06 01:50:38;;;;;;;10.60;9.50;;;;;;;;;;4969944;28;20213;-74
2022/05/06 01:53:07;;;;;;;12.03;9.57;;;;;;;;;;4949240;28;20281;-75
2022/05/06 01:55:37;;;;;;;10.70;9.50;;;;;;;;;;4969946;28;20250;-74
2022/05/06 01:58:06;;;;;;;11.53;9.80;;;;;;;;;;4962710;28;20253;-76
2022/05/06 02:00:37;;;;;;;11.70;10.00;;;;;;;;;;4977927;28;20228;-75
2022/05/06 02:06:00;;;;;;;12.43;9.90;;;;;;;;;;4947644;28;20766;-73
2022/05/06 02:08:28;;;;;;;11.50;9.33;;;;;;;;;;4954586;28;20225;-75
2022/05/06 02:10:53;;;;;;;10.73;9.63;;;;;;;;;;4940103;28;20221;-74
2022/05/06 02:13:22;;;;;;;11.50;10.30;;;;;;;;;;4928836;28;20229;-73
2022/05/06 02:16:10;;;;;;;13.07;10.50;;;;;;;;;;4959550;28;20217;-74
2022/05/06 02:18:52;;;;;;;10.97;9.87;;;;;;;;;;4934111;28;20229;-74
2022/05/06 02:21:38;;;;;;;10.80;9.77;;;;;;;;;;4970048;28;20316;-75
2022/05/06 02:24:23;;;;;;;12.03;10.00;;;;;;;;;;4979806;28;20622;-74
2022/05/06 02:27:12;;;;;;;11.87;9.90;;;;;;;;;;4970536;28;20239;-74
2022/05/06 02:33:12;;;;;;;10.83;9.83;;;;;;;;;;4955885;28;20304;-74
2022/05/06 02:35:13;;;;;;;11.47;9.90;;;;;;;;;;4979667;28;20217;-74
2022/05/06 02:37:43;;;;;;;11.17;10.07;;;;;;;;;;4965016;28;20236;-74
2022/05/06 02:40:10;;;;;;;12.77;9.97;;;;;;;;;;4953481;28;20700;-74
2022/05/06 02:42:38;;;;;;;11.80;10.60;;;;;;;;;;4955146;28;20221;-74
2022/05/06 02:45:10;;;;;;;11.93;10.43;;;;;;;;;;4927814;28;20234;-73
2022/05/06 02:47:39;;;;;;;11.03;9.93;;;;;;;;;;4947452;28;20242;-75
2022/05/06 02:50:06;;;;;;;12.10;10.43;;;;;;;;;;4950786;28;20224;-75
2022/05/06 02:52:35;;;;;;;12.20;10.50;;;;;;;;;;4982235;28;20731;-74
2022/05/06 02:55:04;;;;;;;12.90;10.87;;;;;;;;;;4964612;28;20241;-74
2022/05/06 02:57:30;;;;;;;12.83;10.33;;;;;;;;;;4961746;28;20222;-74
2022/05/06 02:59:59;;;;;;;11.77;10.53;;;;;;;;;;4956503;28;20305;-74
2022/05/06 03:02:30;;;;;;;12.70;10.47;;;;;;;;;;4943404;28;20219;-74
2022/05/06 03:04:59;;;;;;;12.10;10.77;;;;;;;;;;4953438;28;20228;-74
2022/05/06 03:07:25;;;;;;;13.27;10.43;;;;;;;;;;4949420;28;20625;-74
2022/05/06 03:09:55;;;;;;;11.70;10.50;;;;;;;;;;4945057;28;20213;-74
2022/05/06 03:12:26;;;;;;;11.10;9.90;;;;;;;;;;4944569;28;20300;-74
2022/05/06 03:15:03;;;;;;;12.00;10.27;;;;;;;;;;4943264;28;20883;-73
2022/05/06 03:17:35;;;;;;;13.33;10.73;;;;;;;;;;4944243;28;20253;-74
2022/05/06 03:20:07;;;;;;;13.97;10.73;;;;;;;;;;4942600;28;20341;-74
2022/05/06 03:22:45;;;;;;;14.80;10.83;;;;;;;;;;4946742;28;20228;-74
2022/05/06 03:25:11;;;;;;;12.23;10.17;;;;;;;;;;4955397;28;20304;-74
2022/05/06 03:30:28;;;;;;;11.13;9.90;;;;;;;;;;4935645;28;20234;-74
2022/05/06 03:33:02;;;;;;;11.23;9.70;;;;;;;;;;4954188;28;20233;-78
2022/05/06 03:35:33;;;;;;;10.57;9.47;;;;;;;;;;4936942;28;20214;-74
2022/05/06 03:38:04;;;;;;;11.67;9.33;;;;;;;;;;4958678;28;20225;-72
2022/05/06 03:40:32;;;;;;;11.23;9.93;;;;;;;;;;4972617;28;20725;-74
2022/05/06 03:43:05;;;;;;;11.27;9.57;;;;;;;;;;4957937;28;20741;-75
2022/05/06 03:45:32;;;;;;;11.53;10.33;;;;;;;;;;4957217;28;20225;-73
2022/05/06 03:47:59;;;;;;;13.53;9.87;;;;;;;;;;4959835;28;20221;-73
2022/05/06 03:53:14;;;;;;;11.97;10.23;;;;;;;;;;4973577;28;20603;-74
2022/05/06 03:55:41;;;;;;;12.40;10.07;;;;;;;;;;4971129;28;20236;-74
2022/05/06 03:58:13;;;;;;;15.13;10.10;;;;;;;;;;4953402;28;20343;-74
2022/05/06 04:00:44;;;;;;;10.87;9.70;;;;;;;;;;4947729;28;20288;-74
2022/05/06 04:03:14;;;;;;;11.20;9.90;;;;;;;;;;4958610;28;20249;-75
2022/05/06 04:05:41;;;;;;;11.13;9.57;;;;;;;;;;4958678;28;20237;-74
2022/05/06 04:08:10;;;;;;;10.93;9.73;;;;;;;;;;4957640;28;20226;-73
2022/05/06 04:10:40;;;;;;;12.40;10.23;;;;;;;;;;4946383;28;20277;-73
2022/05/06 04:13:06;;;;;;;11.17;9.97;;;;;;;;;;4943596;28;20237;-74
2022/05/06 04:15:33;;;;;;;13.00;10.63;;;;;;;;;;4977824;28;20222;-74
2022/05/06 04:18:02;;;;;;;11.37;10.17;;;;;;;;;;4929892;28;20268;-73
2022/05/06 04:23:29;;;;;;;11.97;9.97;;;;;;;;;;4972141;28;20228;-74
2022/05/06 04:25:59;;;;;;;10.87;9.30;;;;;;;;;;4943669;28;20312;-74
2022/05/06 04:28:28;;;;;;;12.03;9.77;;;;;;;;;;4959152;28;20222;-74
2022/05/06 04:30:58;;;;;;;11.97;10.30;;;;;;;;;;4955932;28;20222;-74
2022/05/06 04:33:28;;;;;;;11.30;10.10;;;;;;;;;;4944947;28;20300;-73
2022/05/06 04:35:57;;;;;;;12.20;10.20;;;;;;;;;;4960898;28;20684;-74
2022/05/06 04:38:28;;;;;;;12.00;9.77;;;;;;;;;;4958856;28;20213;-75
2022/05/06 04:41:01;;;;;;;11.90;10.70;;;;;;;;;;4939977;28;20245;-74
2022/05/06 04:43:29;;;;;;;11.17;10.07;;;;;;;;;;4962099;28;20707;-73
2022/05/06 04:45:58;;;;;;;12.80;10.43;;;;;;;;;;4947165;28;20228;-74
2022/05/06 04:48:26;;;;;;;11.20;10.10;;;;;;;;;;4960756;28;20225;-74
2022/05/06 04:50:52;;;;;;;11.87;10.00;;;;;;;;;;4942851;28;20309;-74
2022/05/06 04:53:18;;;;;;;11.17;9.73;;;;;;;;;;4948750;28;20792;-75
2022/05/06 04:55:50;;;;;;;14.17;10.47;;;;;;;;;;4930361;28;20300;-74
2022/05/06 04:58:18;;;;;;;11.67;9.90;;;;;;;;;;4962179;28;20229;-77
2022/05/06 05:00:45;;;;;;;10.93;9.83;;;;;;;;;;4976150;28;20229;-75
2022/05/06 05:03:10;;;;;;;12.93;10.07;;;;;;;;;;4973395;28;20230;-74
2022/05/06 05:05:41;;;;;;;11.30;10.00;;;;;;;;;;4959137;28;20237;-74
2022/05/06 05:08:12;;;;;;;11.20;10.07;;;;;;;;;;4959937;28;20237;-74
2022/05/06 05:10:44;;;;;;;11.20;10.00;;;;;;;;;;4948357;28;20718;-75
2022/05/06 05:13:10;;;;;;;11.63;10.20;;;;;;;;;;4957765;28;20618;-75
2022/05/06 05:15:36;;;;;;;11.03;9.90;;;;;;;;;;4959771;28;20210;-74
2022/05/06 05:18:07;;;;;;;11.00;9.90;;;;;;;;;;4945911;28;20245;-77
2022/05/06 05:20:33;;;;;;;10.87;9.77;;;;;;;;;;4963548;28;20226;-77
2022/05/06 05:23:02;;;;;;;13.00;10.40;;;;;;;;;;4963577;28;20229;-75
2022/05/06 05:25:32;;;;;;;12.07;9.80;;;;;;;;;;4951381;28;20233;-74
2022/05/06 05:27:59;;;;;;;12.40;10.33;;;;;;;;;;4958422;28;20213;-74
2022/05/06 05:30:32;;;;;;;14.33;10.43;;;;;;;;;;4962528;28;20222;-73
2022/05/06 05:33:03;;;;;;;15.77;10.27;;;;;;;;;;4970497;28;20229;-75
2022/05/06 05:35:29;;;;;;;12.40;10.60;;;;;;;;;;4969603;28;20233;-74
2022/05/06 05:38:01;;;;;;;12.80;11.47;;;;;;;;;;4976954;28;20236;-74
2022/05/06 05:40:30;;;;;;;14.93;13.07;;;;;;;;;;4952603;28;20317;-74
2022/05/06 05:42:55;;;;;;;18.03;14.27;;;;;;;;;;4962603;28;20225;-74
2022/05/06 05:48:22;;;;;;;17.13;14.23;;;;;;;;;;4973652;28;20216;-74
2022/05/06 05:50:53;;;;;;;15.37;13.73;;;;;;;;;;4944114;28;20240;-74
2022/05/06 05:53:25;;;;;;;15.73;13.57;;;;;;;;;;4959502;28;20227;-74
2022/05/06 05:55:59;;;;;;;14.23;12.60;;;;;;;;;;4961726;28;20218;-75
2022/05/06 05:58:26;;;;;;;19.93;13.40;;;;;;;;;;4954898;28;20704;-76
2022/05/06 06:00:54;;;;;;;14.37;12.90;;;;;;;;;;4956080;28;20818;-75
2022/05/06 06:03:28;;;;;;;16.87;13.63;;;;;;;;;;4940428;28;20222;-75
2022/05/06 06:05:54;;;;;;;20.53;15.83;;;;;;;;;;4951634;28;20231;-75
2022/05/06 06:08:21;;;;;;;19.73;16.23;;;;;;;;;;4965330;28;20247;-76
2022/05/06 06:10:49;;;;;;;19.40;16.17;;;;;;;;;;4966090;28;20720;-76
2022/05/06 06:13:18;;;;;;;20.47;16.60;;;;;;;;;;4978642;28;20296;-76
2022/05/06 06:15:48;;;;;;;20.17;16.83;;;;;;;;;;4955273;28;20242;-75
2022/05/06 06:18:15;;;;;;;17.87;15.57;;;;;;;;;;4970305;28;20312;-76
2022/05/06 06:20:45;;;;;;;21.53;16.83;;;;;;;;;;4940400;28;20273;-75
2022/05/06 06:23:11;;;;;;;18.07;15.67;;;;;;;;;;4965563;28;20617;-75
2022/05/06 06:25:36;;;;;;;18.83;15.47;;;;;;;;;;4972406;28;20240;-75
2022/05/06 06:28:05;;;;;;;18.10;14.83;;;;;;;;;;4955709;28;20317;-75
2022/05/06 06:30:30;;;;;;;17.37;14.97;;;;;;;;;;4941440;28;20217;-77
2022/05/06 06:33:03;;;;;;;15.17;13.57;;;;;;;;;;4952401;28;20312;-75
2022/05/06 06:35:28;;;;;;;16.53;14.23;;;;;;;;;;4955879;28;20248;-75
2022/05/06 06:38:00;;;;;;;13.47;12.07;;;;;;;;;;4954937;28;20307;-75
2022/05/06 06:40:32;;;;;;;12.93;11.57;;;;;;;;;;4956673;28;20226;-75
2022/05/06 06:43:07;;;;;;;12.97;11.67;;;;;;;;;;4971940;28;20734;-76
2022/05/06 06:45:49;;;;;;;14.00;12.57;;;;;;;;;;4959169;28;20225;-76
2022/05/06 06:48:34;;;;;;;14.52;11.68;;;;;;;;;;4981868;28;20217;-75
2022/05/06 06:51:06;;;;;;;13.32;11.93;;;;;;;;;;4967212;28;20222;-76
2022/05/06 06:53:36;;;;;;;12.32;11.02;;;;;;;;;;4956068;28;20261;-75
2022/05/06 06:56:02;;;;;;;11.43;10.18;;;;;;;;;;4955218;28;20241;-76
2022/05/06 06:58:28;;;;;;;10.50;9.48;;;;;;;;;;4961704;28;20296;-76
2022/05/06 07:00:58;;;;;;;9.67;8.30;;;;;;;;;;4965914;28;20699;-76
2022/05/06 07:03:27;;;;;;;9.30;8.35;;;;;;;;;;4963485;28;20229;-76
2022/05/06 07:14:14;;;;;;;9.98;9.07;;;;;;;;;;4958168;28;20232;-75
2022/05/06 07:16:42;;;;;;;11.55;10.35;;;;;;;;;;4968871;28;20221;-76
2022/05/06 07:19:07;;;;;;;11.30;9.80;;;;;;;;;;4962105;28;20304;-77
2022/05/06 07:21:33;;;;;;;12.20;10.77;;;;;;;;;;4939730;28;20226;-75
2022/05/06 07:23:59;;;;;;;13.20;11.40;;;;;;;;;;4972914;28;20317;-74
2022/05/06 07:26:25;;;;;;;13.65;11.18;;;;;;;;;;4953771;28;20221;-75
2022/05/06 07:28:51;;;;;;;15.15;11.43;;;;;;;;;;4923675;28;20588;-76
2022/05/06 07:31:17;;;;;;;17.45;12.70;;;;;;;;;;4970112;28;20735;-74
2022/05/06 07:33:42;;;;;;;13.65;12.25;;;;;;;;;;4963908;28;20289;-77
2022/05/06 07:36:10;;;;;;;14.65;13.00;;;;;;;;;;4965463;28;20297;-78
2022/05/06 07:38:35;;;;;;;14.85;12.43;;;;;;;;;;4964067;28;20226;-77
2022/05/06 07:41:03;;;;;;;14.70;12.52;;;;;;;;;;4956709;28;20236;-76
2022/05/06 07:43:31;;;;;;;15.55;12.50;;;;;;;;;;4982913;28;20257;-76
2022/05/06 07:46:01;;;;;;;15.13;12.75;;;;;;;;;;4952107;28;20237;-76
2022/05/06 07:48:27;;;;;;;15.32;12.60;;;;;;;;;;4961240;28;20711;-75
2022/05/06 07:50:53;;;;;;;14.15;12.68;;;;;;;;;;4984313;28;20305;-74
2022/05/06 07:53:25;;;;;;;15.38;12.77;;;;;;;;;;4960747;28;20233;-75
2022/05/06 07:55:55;;;;;;;15.93;12.75;;;;;;;;;;4944482;28;20222;-75
2022/05/06 07:58:23;;;;;;;15.55;12.70;;;;;;;;;;4957016;28;20238;-74
2022/05/06 08:00:51;;;;;;;16.17;13.63;;;;;;;;;;4974867;28;20230;-75
2022/05/06 08:06:06;;;;;;;14.73;12.93;;;;;;;;;;4958556;28;20887;-74
2022/05/06 08:08:34;;;;;;;17.23;13.45;;;;;;;;;;4960462;28;20699;-74
2022/05/06 08:10:59;;;;;;;15.25;13.02;;;;;;;;;;4942459;28;20226;-74
2022/05/06 08:13:26;;;;;;;14.25;12.77;;;;;;;;;;4957095;28;20305;-75
2022/05/06 08:15:52;;;;;;;13.65;12.13;;;;;;;;;;4958079;28;20241;-74
2022/05/06 08:18:20;;;;;;;14.60;13.07;;;;;;;;;;4992669;28;20221;-74
2022/05/06 08:20:48;;;;;;;15.05;13.30;;;;;;;;;;4988310;28;20707;-75
2022/05/06 08:23:22;;;;;;;15.18;12.40;;;;;;;;;;4985465;28;20225;-74
2022/05/06 08:25:51;;;;;;;14.70;13.07;;;;;;;;;;4969235;28;20249;-75
2022/05/06 08:28:19;;;;;;;15.25;12.57;;;;;;;;;;4917347;28;20260;-75
2022/05/06 08:30:48;;;;;;;14.75;12.90;;;;;;;;;;4970058;28;20232;-74
2022/05/06 08:33:14;;;;;;;14.13;12.55;;;;;;;;;;4938265;28;20229;-75
2022/05/06 08:35:43;;;;;;;14.23;12.73;;;;;;;;;;4961216;28;20264;-75
2022/05/06 08:38:10;;;;;;;14.50;12.27;;;;;;;;;;4966700;28;20229;-75
2022/05/06 08:40:36;;;;;;;13.35;11.93;;;;;;;;;;4957802;28;20242;-77
2022/05/06 08:43:04;;;;;;;15.57;12.30;;;;;;;;;;4959150;28;20316;-76
2022/05/06 08:51:02;;;;;;;13.20;10.88;;;;;;;;;;4985105;28;20234;-75
2022/05/06 08:53:37;;;;;;;11.60;9.82;;;;;;;;;;4957649;28;20292;-76
2022/05/06 08:56:04;;;;;;;11.45;10.25;;;;;;;;;;4965004;28;20729;-76
2022/05/06 08:58:37;;;;;;;10.68;9.57;;;;;;;;;;4949761;28;20219;-75
2022/05/06 09:01:03;;;;;;;13.18;11.25;;;;;;;;;;4953197;28;20230;-75
2022/05/06 09:03:31;;;;;;;12.68;10.68;;;;;;;;;;4953509;28;20234;-76
2022/05/06 09:05:59;;;;;;;11.40;10.20;;;;;;;;;;4981035;28;20234;-76
2022/05/06 09:08:37;;;;;;;12.10;10.38;;;;;;;;;;4962692;28;20236;-75
2022/05/06 09:11:07;;;;;;;15.30;10.70;;;;;;;;;;4971062;28;20248;-75
2022/05/06 09:13:51;;;;;;;12.57;11.23;;;;;;;;;;4968414;28;20230;-78
2022/05/06 09:19:24;;;;;;;10.65;9.52;;;;;;;;;;4960091;28;20257;-74
2022/05/06 09:22:01;;;;;;;11.55;9.82;;;;;;;;;;4956324;28;20225;-76
2022/05/06 09:24:30;;;;;;;10.85;9.48;;;;;;;;;;4980734;28;20230;-77
2022/05/06 09:27:00;;;;;;;9.45;8.55;;;;;;;;;;4970572;28;20220;-74
2022/05/06 09:29:29;;;;;;;12.50;10.23;;;;;;;;;;4958722;28;20624;-74
2022/05/06 09:31:56;;;;;;;11.35;8.38;;;;;;;;;;4974404;28;20241;-75
2022/05/06 09:34:28;;;;;;;10.95;8.45;;;;;;;;;;4939203;28;20234;-75
2022/05/06 09:36:54;;;;;;;9.55;8.55;;;;;;;;;;4966051;28;20233;-75
2022/05/06 09:39:20;;;;;;;9.80;8.80;;;;;;;;;;4955576;28;20644;-73
2022/05/06 09:41:46;;;;;;;9.63;7.80;;;;;;;;;;4945972;28;20307;-76
2022/05/06 09:44:12;;;;;;;9.75;8.70;;;;;;;;;;4958805;28;20237;-76
2022/05/06 09:46:40;;;;;;;8.80;8.00;;;;;;;;;;4950815;28;20280;-75
2022/05/06 09:49:07;;;;;;;8.93;7.65;;;;;;;;;;4978106;28;20252;-73
2022/05/06 09:51:35;;;;;;;9.50;6.43;;;;;;;;;;4983607;28;20712;-72
2022/05/06 09:54:02;;;;;;;7.30;6.32;;;;;;;;;;4965671;28;20226;-73
2022/05/06 09:56:28;;;;;;;6.80;6.18;;;;;;;;;;4966848;28;20615;-72
2022/05/06 09:58:57;;;;;;;12.18;10.88;;;;;;;;;;4958407;28;20304;-73
2022/05/06 10:01:23;;;;;;;11.15;10.02;;;;;;;;;;4971211;28;20241;-73
2022/05/06 10:03:51;;;;;;;8.10;7.30;;;;;;;;;;4951835;28;20226;-73
2022/05/06 10:06:17;;;;;;;7.75;6.20;;;;;;;;;;4967942;28;20217;-74
2022/05/06 10:08:49;;;;;;;7.47;6.00;;;;;;;;;;4957449;28;20766;-73
2022/05/06 10:11:24;;;;;;;7.40;6.47;;;;;;;;;;4956239;28;20213;-74
2022/05/06 10:13:50;;;;;;;5.75;5.10;;;;;;;;;;4959924;28;20238;-76
2022/05/06 10:16:16;;;;;;;6.43;5.72;;;;;;;;;;4953249;28;20255;-75
2022/05/06 10:18:44;;;;;;;6.60;5.65;;;;;;;;;;4971980;28;20763;-75
2022/05/06 10:21:11;;;;;;;5.78;5.18;;;;;;;;;;4952957;28;20273;-73
2022/05/06 10:23:54;;;;;;;6.30;5.00;;;;;;;;;;4945018;28;20316;-78
2022/05/06 10:26:54;;;;;;;6.93;5.53;;;;;;;;;;4933741;28;20220;-74
2022/05/06 10:32:55;;;;;;;6.13;4.93;;;;;;;;;;4979567;28;20237;-74
2022/05/06 10:35:37;;;;;;;8.23;5.25;;;;;;;;;;4968004;28;20240;-73
2022/05/06 10:38:14;;;;;;;6.75;4.55;;;;;;;;;;4972972;28;20230;-75
2022/05/06 10:40:48;;;;;;;7.43;4.68;;;;;;;;;;4963557;28;20241;-75
2022/05/06 10:43:46;;;;;;;4.93;4.50;;;;;;;;;;4957774;28;20228;-75
2022/05/06 10:46:35;;;;;;;5.60;4.88;;;;;;;;;;4986569;28;20225;-75
2022/05/06 10:49:35;;;;;;;5.97;4.18;;;;;;;;;;4952389;28;20423;-75
2022/05/06 10:52:15;;;;;;;4.45;3.55;;;;;;;;;;4981473;28;20316;-74
2022/05/06 10:54:55;;;;;;;4.68;3.70;;;;;;;;;;4978600;28;20307;-76
2022/05/06 10:57:26;;;;;;;5.53;3.70;;;;;;;;;;4919734;28;20233;-75
2022/05/06 10:59:51;;;;;;;5.63;3.75;;;;;;;;;;4940851;28;20221;-75
2022/05/06 11:02:20;;;;;;;5.25;3.70;;;;;;;;;;4973711;28;20356;-75
2022/05/06 11:04:58;;;;;;;4.60;3.17;;;;;;;;;;4955180;28;20719;-74
2022/05/06 11:07:29;;;;;;;5.72;4.32;;;;;;;;;;4983817;28;20218;-74
2022/05/06 11:09:54;;;;;;;4.82;4.00;;;;;;;;;;4973085;28;20347;-74
2022/05/06 11:12:44;;;;;;;3.88;3.47;;;;;;;;;;4938739;28;20229;-75
2022/05/06 11:15:16;;;;;;;3.95;3.30;;;;;;;;;;4949613;28;20214;-74
2022/05/06 11:17:44;;;;;;;5.15;3.50;;;;;;;;;;4964283;28;20330;-75
2022/05/06 11:20:32;;;;;;;5.72;3.50;;;;;;;;;;4965518;28;20210;-75
2022/05/06 11:22:58;;;;;;;4.07;2.70;;;;;;;;;;4966333;28;20264;-75
2022/05/06 11:25:25;;;;;;;3.65;2.83;;;;;;;;;;4983126;28;20226;-72
2022/05/06 11:27:55;;;;;;;5.65;3.30;;;;;;;;;;4944415;28;20300;-73
2022/05/06 11:30:23;;;;;;;3.42;2.80;;;;;;;;;;4959721;28;20304;-75
2022/05/06 11:32:53;;;;;;;5.25;3.50;;;;;;;;;;4960216;28;20222;-75
2022/05/06 11:35:28;;;;;;;5.68;3.55;;;;;;;;;;4928225;28;20265;-74
2022/05/06 11:37:55;;;;;;;5.32;3.03;;;;;;;;;;4959501;28;20236;-75
2022/05/06 11:42:55;;;;;;;3.17;2.88;;;;;;;;;;4974275;28;20934;-77
2022/05/06 11:48:08;;;;;;;3.42;2.55;;;;;;;;;;4951141;28;20253;-76
2022/05/06 11:50:39;;;;;;;3.30;2.80;;;;;;;;;;4944430;28;20273;-75
2022/05/06 11:53:08;;;;;;;4.00;2.67;;;;;;;;;;4954531;28;20230;-75
2022/05/06 11:55:40;;;;;;;3.25;2.15;;;;;;;;;;4956814;28;20248;-75
2022/05/06 11:58:11;;;;;;;4.38;2.25;;;;;;;;;;4944910;28;20232;-77
2022/05/06 12:00:37;;;;;;;2.78;2.10;;;;;;;;;;4960060;28;20229;-75
2022/05/06 12:03:04;;;;;;;2.72;2.00;;;;;;;;;;4991247;28;20281;-76
2022/05/06 12:05:30;;;;;;;3.15;1.88;;;;;;;;;;4966484;28;20226;-75
2022/05/06 12:07:58;;;;;;;2.97;2.40;;;;;;;;;;4956000;28;20222;-76
2022/05/06 12:10:27;;;;;;;3.00;2.25;;;;;;;;;;4958004;28;20229;-77
2022/05/06 12:13:00;;;;;;;2.67;2.30;;;;;;;;;;4989245;28;20226;-75
2022/05/06 12:15:40;;;;;;;2.58;2.08;;;;;;;;;;4971490;28;20213;-76
2022/05/06 12:18:07;;;;;;;2.65;2.08;;;;;;;;;;4959145;28;20232;-79
2022/05/06 12:20:38;;;;;;;4.22;2.35;;;;;;;;;;4983958;28;20225;-75
2022/05/06 12:23:07;;;;;;;2.50;2.28;;;;;;;;;;4972989;28;20229;-74
2022/05/06 12:25:35;;;;;;;4.65;2.55;;;;;;;;;;4962192;28;20227;-77
2022/05/06 12:28:07;;;;;;;3.88;2.40;;;;;;;;;;4970701;28;20758;-75
2022/05/06 12:30:38;;;;;;;4.18;2.45;;;;;;;;;;4990235;28;20221;-75
2022/05/06 12:33:07;;;;;;;3.47;2.22;;;;;;;;;;4969982;28;20662;-75
2022/05/06 12:35:54;;;;;;;3.50;2.40;;;;;;;;;;4977052;28;20763;-75
2022/05/06 12:38:26;;;;;;;3.35;2.40;;;;;;;;;;4968530;28;20217;-76
2022/05/06 12:40:57;;;;;;;3.35;2.20;;;;;;;;;;4954968;28;20253;-75
2022/05/06 12:43:26;;;;;;;2.50;2.30;;;;;;;;;;4959177;28;20704;-75
2022/05/06 12:45:56;;;;;;;2.92;2.22;;;;;;;;;;4973246;28;20230;-75
2022/05/06 12:51:09;;;;;;;4.60;2.40;;;;;;;;;;4973747;28;20710;-74
2022/05/06 12:53:34;;;;;;;3.17;1.70;;;;;;;;;;4958644;28;20727;-74
2022/05/06 12:56:03;;;;;;;2.78;1.98;;;;;;;;;;4967935;28;20246;-75
2022/05/06 12:58:28;;;;;;;2.40;2.00;;;;;;;;;;4988230;28;20604;-75
2022/05/06 13:00:57;;;;;;;3.55;1.92;;;;;;;;;;4988518;28;20288;-76
2022/05/06 13:03:23;;;;;;;2.63;1.80;;;;;;;;;;4972565;28;20234;-76
2022/05/06 13:05:56;;;;;;;2.33;2.13;;;;;;;;;;4958981;28;20313;-75
2022/05/06 13:08:24;;;;;;;2.60;2.08;;;;;;;;;;4954379;28;20248;-77
2022/05/06 13:10:50;;;;;;;3.92;2.15;;;;;;;;;;4959040;28;20260;-76
2022/05/06 13:13:18;;;;;;;3.88;1.98;;;;;;;;;;4984241;28;20316;-75
2022/05/06 13:15:44;;;;;;;2.95;2.30;;;;;;;;;;4942987;28;20527;-76
2022/05/06 13:18:09;;;;;;;3.95;2.03;;;;;;;;;;4967815;28;20230;-76
2022/05/06 13:20:37;;;;;;;3.53;2.10;;;;;;;;;;4959619;28;20221;-76
2022/05/06 13:23:07;;;;;;;3.90;1.90;;;;;;;;;;4945965;28;20230;-75
2022/05/06 13:25:35;;;;;;;3.58;1.95;;;;;;;;;;4962424;28;20241;-75
2022/05/06 13:28:00;;;;;;;3.03;2.05;;;;;;;;;;4960878;28;20229;-77
2022/05/06 13:30:27;;;;;;;3.13;2.20;;;;;;;;;;4979922;28;20305;-75
2022/05/06 13:32:53;;;;;;;2.58;1.70;;;;;;;;;;4973865;28;20230;-75
2022/05/06 13:35:18;;;;;;;1.98;1.48;;;;;;;;;;4975251;28;20280;-76
2022/05/06 13:37:44;;;;;;;2.60;1.88;;;;;;;;;;4952687;28;20229;-75
2022/05/06 13:40:12;;;;;;;4.13;2.10;;;;;;;;;;4957177;28;20241;-75
2022/05/06 13:42:37;;;;;;;2.53;1.80;;;;;;;;;;4952480;28;20712;-75
2022/05/06 13:45:06;;;;;;;2.42;1.80;;;;;;;;;;4957593;28;20301;-75
2022/05/06 13:47:34;;;;;;;2.63;1.80;;;;;;;;;;4972268;28;20214;-75
2022/05/06 13:50:02;;;;;;;3.65;1.92;;;;;;;;;;4958095;28;20696;-75
2022/05/06 13:52:30;;;;;;;1.70;1.60;;;;;;;;;;4952830;28;20222;-75
2022/05/06 13:55:05;;;;;;;2.30;1.60;;;;;;;;;;4966295;28;20230;-75
2022/05/06 14:00:22;;;;;;;2.63;1.73;;;;;;;;;;4979610;28;20316;-75
2022/05/06 14:02:48;;;;;;;2.05;1.67;;;;;;;;;;4967166;28;20225;-76
2022/05/06 14:05:17;;;;;;;2.85;1.80;;;;;;;;;;4955154;28;20268;-76
2022/05/06 14:07:42;;;;;;;3.28;1.70;;;;;;;;;;4959041;28;20249;-75
2022/05/06 14:10:14;;;;;;;4.18;1.63;;;;;;;;;;4941108;28;20281;-75
2022/05/06 14:12:40;;;;;;;3.65;1.83;;;;;;;;;;4964906;28;20253;-74
2022/05/06 14:15:06;;;;;;;3.78;1.95;;;;;;;;;;4949704;28;20712;-75
2022/05/06 14:17:32;;;;;;;3.20;1.58;;;;;;;;;;4958632;28;20247;-75
2022/05/06 14:19:57;;;;;;;3.30;1.50;;;;;;;;;;4960470;28;20672;-76
2022/05/06 14:22:23;;;;;;;2.67;1.50;;;;;;;;;;4973317;28;20312;-75
2022/05/06 14:24:53;;;;;;;1.85;1.40;;;;;;;;;;4969551;28;20229;-76
2022/05/06 14:27:19;;;;;;;3.15;1.45;;;;;;;;;;4955725;28;20226;-75
2022/05/06 14:29:46;;;;;;;1.42;1.33;;;;;;;;;;4973742;28;20312;-75
2022/05/06 14:32:12;;;;;;;2.50;1.40;;;;;;;;;;4964296;28;20222;-76
2022/05/06 14:34:38;;;;;;;2.55;1.55;;;;;;;;;;4956542;28;20256;-75
2022/05/06 14:37:03;;;;;;;4.03;1.50;;;;;;;;;;4949186;28;20707;-75
2022/05/06 14:39:31;;;;;;;2.78;1.55;;;;;;;;;;4951303;28;20228;-76
2022/05/06 14:42:01;;;;;;;4.65;1.80;;;;;;;;;;4959816;28;20603;-76
2022/05/06 14:44:29;;;;;;;3.05;1.80;;;;;;;;;;4944094;28;20606;-76
2022/05/06 14:46:55;;;;;;;2.40;1.60;;;;;;;;;;4949471;28;20259;-76
2022/05/06 14:49:23;;;;;;;2.13;1.70;;;;;;;;;;4972972;28;20217;-76
2022/05/06 14:51:51;;;;;;;4.18;1.70;;;;;;;;;;4948104;28;20226;-74
2022/05/06 14:54:19;;;;;;;2.67;1.77;;;;;;;;;;4978693;28;20234;-75
2022/05/06 14:56:45;;;;;;;4.57;3.58;;;;;;;;;;4962948;28;20237;-75
2022/05/06 14:59:10;;;;;;;5.40;2.60;;;;;;;;;;4977103;28;20214;-75
2022/05/06 15:01:38;;;;;;;2.60;2.40;;;;;;;;;;4960338;28;20644;-75
2022/05/06 15:04:06;;;;;;;2.17;1.60;;;;;;;;;;4982878;28;20608;-73
2022/05/06 15:06:33;;;;;;;1.90;1.70;;;;;;;;;;4988655;28;20292;-76
2022/05/06 15:08:59;;;;;;;2.25;1.67;;;;;;;;;;4962334;28;20401;-75
2022/05/06 15:11:26;;;;;;;2.55;2.00;;;;;;;;;;4972501;28;20300;-75
2022/05/06 15:13:52;;;;;;;3.17;1.95;;;;;;;;;;4966925;28;20241;-75
2022/05/06 15:16:17;;;;;;;1.90;1.70;;;;;;;;;;4988705;28;20234;-75
2022/05/06 15:21:32;;;;;;;2.17;1.50;;;;;;;;;;4979533;28;20228;-75
2022/05/06 15:23:59;;;;;;;2.15;1.40;;;;;;;;;;4988045;28;20308;-75
2022/05/06 15:26:29;;;;;;;2.13;1.58;;;;;;;;;;4960110;28;20245;-75
2022/05/06 15:28:57;;;;;;;3.53;1.88;;;;;;;;;;4957806;28;20229;-75
2022/05/06 15:31:25;;;;;;;4.57;1.60;;;;;;;;;;4950814;28;20270;-76
2022/05/06 15:33:50;;;;;;;3.38;1.90;;;;;;;;;;4967070;28;20229;-75
2022/05/06 15:36:20;;;;;;;2.60;1.70;;;;;;;;;;4972428;28;20216;-74
2022/05/06 15:38:45;;;;;;;3.20;2.00;;;;;;;;;;4975148;28;20225;-74